sensor_id;sensor_type;location;lat;lon;timestamp;P1;durP1;ratioP1;P2;durP2;ratioP2
59930;SDS011;45790;51.538;6.736;2023-08-07T00:01:19;5.03;;;1.50;;
59930;SDS011;45790;51.538;6.736;2023-08-07T00:03:45;8.68;;;1.75;;
59930;SDS011;45790;51.538;6.736;2023-08-07T00:06:10;8.00;;;1.63;;
59930;SDS011;45790;51.538;6.736;2023-08-07T00:08:35;5.67;;;1.33;;
59930;SDS011;45790;51.538;6.736;2023-08-07T00:11:06;6.43;;;1.52;;
59930;SDS011;45790;51.538;6.736;2023-08-07T00:13:31;7.32;;;1.42;;
59930;SDS011;45790;51.538;6.736;2023-08-07T00:15:56;7.00;;;1.37;;
59930;SDS011;45790;51.538;6.736;2023-08-07T00:18:22;8.43;;;1.50;;
59930;SDS011;45790;51.538;6.736;2023-08-07T00:20:47;5.90;;;1.53;;
59930;SDS011;45790;51.538;6.736;2023-08-07T00:23:12;8.90;;;1.50;;
59930;SDS011;45790;51.538;6.736;2023-08-07T00:25:37;8.60;;;1.70;;
59930;SDS011;45790;51.538;6.736;2023-08-07T00:28:02;11.45;;;1.88;;
59930;SDS011;45790;51.538;6.736;2023-08-07T00:30:28;5.70;;;1.50;;
59930;SDS011;45790;51.538;6.736;2023-08-07T00:32:53;5.33;;;1.30;;
59930;SDS011;45790;51.538;6.736;2023-08-07T00:35:18;8.20;;;1.90;;
59930;SDS011;45790;51.538;6.736;2023-08-07T00:37:43;8.03;;;1.60;;
59930;SDS011;45790;51.538;6.736;2023-08-07T00:40:09;6.88;;;1.40;;
59930;SDS011;45790;51.538;6.736;2023-08-07T00:42:34;8.70;;;1.70;;
59930;SDS011;45790;51.538;6.736;2023-08-07T00:44:59;8.40;;;2.13;;
59930;SDS011;45790;51.538;6.736;2023-08-07T00:47:26;10.75;;;1.70;;
59930;SDS011;45790;51.538;6.736;2023-08-07T00:49:51;6.93;;;1.35;;
59930;SDS011;45790;51.538;6.736;2023-08-07T00:52:16;5.70;;;1.45;;
59930;SDS011;45790;51.538;6.736;2023-08-07T00:54:42;8.07;;;1.63;;
59930;SDS011;45790;51.538;6.736;2023-08-07T00:57:09;5.93;;;1.50;;
59930;SDS011;45790;51.538;6.736;2023-08-07T00:59:35;7.13;;;1.55;;
59930;SDS011;45790;51.538;6.736;2023-08-07T01:02:01;8.65;;;1.90;;
59930;SDS011;45790;51.538;6.736;2023-08-07T01:04:26;7.07;;;1.50;;
59930;SDS011;45790;51.538;6.736;2023-08-07T01:06:51;5.60;;;1.38;;
59930;SDS011;45790;51.538;6.736;2023-08-07T01:09:16;8.95;;;1.52;;
59930;SDS011;45790;51.538;6.736;2023-08-07T01:12:26;5.80;;;1.60;;
59930;SDS011;45790;51.538;6.736;2023-08-07T01:14:36;8.95;;;1.33;;
59930;SDS011;45790;51.538;6.736;2023-08-07T01:17:05;7.75;;;1.63;;
59930;SDS011;45790;51.538;6.736;2023-08-07T01:19:31;9.00;;;1.58;;
59930;SDS011;45790;51.538;6.736;2023-08-07T01:24:31;13.30;;;1.42;;
59930;SDS011;45790;51.538;6.736;2023-08-07T01:26:57;5.78;;;1.23;;
59930;SDS011;45790;51.538;6.736;2023-08-07T01:29:27;4.78;;;1.38;;
59930;SDS011;45790;51.538;6.736;2023-08-07T01:31:57;4.47;;;1.17;;
59930;SDS011;45790;51.538;6.736;2023-08-07T01:34:23;6.13;;;1.30;;
59930;SDS011;45790;51.538;6.736;2023-08-07T01:36:50;5.72;;;1.30;;
59930;SDS011;45790;51.538;6.736;2023-08-07T01:39:16;5.45;;;1.10;;
59930;SDS011;45790;51.538;6.736;2023-08-07T01:41:41;7.80;;;1.30;;
59930;SDS011;45790;51.538;6.736;2023-08-07T01:44:07;7.07;;;1.55;;
59930;SDS011;45790;51.538;6.736;2023-08-07T01:46:32;5.55;;;1.42;;
59930;SDS011;45790;51.538;6.736;2023-08-07T01:48:57;4.65;;;1.25;;
59930;SDS011;45790;51.538;6.736;2023-08-07T01:51:22;4.90;;;1.10;;
59930;SDS011;45790;51.538;6.736;2023-08-07T01:53:47;5.55;;;1.27;;
59930;SDS011;45790;51.538;6.736;2023-08-07T01:56:13;5.83;;;1.00;;
59930;SDS011;45790;51.538;6.736;2023-08-07T01:58:38;4.90;;;1.00;;
59930;SDS011;45790;51.538;6.736;2023-08-07T02:01:03;4.30;;;1.10;;
59930;SDS011;45790;51.538;6.736;2023-08-07T02:03:28;2.75;;;1.08;;
59930;SDS011;45790;51.538;6.736;2023-08-07T02:05:54;4.38;;;1.10;;
59930;SDS011;45790;51.538;6.736;2023-08-07T02:08:19;5.90;;;1.17;;
59930;SDS011;45790;51.538;6.736;2023-08-07T02:10:44;3.47;;;1.23;;
59930;SDS011;45790;51.538;6.736;2023-08-07T02:13:09;3.70;;;1.10;;
59930;SDS011;45790;51.538;6.736;2023-08-07T02:15:35;5.05;;;1.08;;
59930;SDS011;45790;51.538;6.736;2023-08-07T02:18:00;5.57;;;1.00;;
59930;SDS011;45790;51.538;6.736;2023-08-07T02:20:25;5.80;;;1.17;;
59930;SDS011;45790;51.538;6.736;2023-08-07T02:22:50;3.13;;;1.00;;
59930;SDS011;45790;51.538;6.736;2023-08-07T02:25:15;5.43;;;1.30;;
59930;SDS011;45790;51.538;6.736;2023-08-07T02:27:41;5.05;;;1.17;;
59930;SDS011;45790;51.538;6.736;2023-08-07T02:30:06;5.00;;;1.20;;
59930;SDS011;45790;51.538;6.736;2023-08-07T02:32:31;4.18;;;1.27;;
59930;SDS011;45790;51.538;6.736;2023-08-07T02:34:56;4.00;;;1.33;;
59930;SDS011;45790;51.538;6.736;2023-08-07T02:37:22;4.78;;;1.33;;
59930;SDS011;45790;51.538;6.736;2023-08-07T02:39:47;5.82;;;1.58;;
59930;SDS011;45790;51.538;6.736;2023-08-07T02:42:12;5.20;;;1.55;;
59930;SDS011;45790;51.538;6.736;2023-08-07T02:44:37;8.03;;;2.07;;
59930;SDS011;45790;51.538;6.736;2023-08-07T02:47:03;9.93;;;1.67;;
59930;SDS011;45790;51.538;6.736;2023-08-07T02:49:28;4.85;;;1.30;;
59930;SDS011;45790;51.538;6.736;2023-08-07T02:51:53;4.47;;;1.50;;
59930;SDS011;45790;51.538;6.736;2023-08-07T02:54:18;6.78;;;1.67;;
59930;SDS011;45790;51.538;6.736;2023-08-07T02:56:43;7.60;;;1.52;;
59930;SDS011;45790;51.538;6.736;2023-08-07T02:59:09;9.02;;;1.58;;
59930;SDS011;45790;51.538;6.736;2023-08-07T03:01:34;7.43;;;1.60;;
59930;SDS011;45790;51.538;6.736;2023-08-07T03:03:59;6.30;;;1.30;;
59930;SDS011;45790;51.538;6.736;2023-08-07T03:06:24;7.55;;;1.65;;
59930;SDS011;45790;51.538;6.736;2023-08-07T03:08:50;6.33;;;1.80;;
59930;SDS011;45790;51.538;6.736;2023-08-07T03:11:15;9.48;;;1.70;;
59930;SDS011;45790;51.538;6.736;2023-08-07T03:13:40;10.13;;;1.70;;
59930;SDS011;45790;51.538;6.736;2023-08-07T03:16:07;7.68;;;1.63;;
59930;SDS011;45790;51.538;6.736;2023-08-07T03:18:33;13.07;;;1.98;;
59930;SDS011;45790;51.538;6.736;2023-08-07T03:20:58;7.28;;;1.50;;
59930;SDS011;45790;51.538;6.736;2023-08-07T03:23:24;7.43;;;1.70;;
59930;SDS011;45790;51.538;6.736;2023-08-07T03:25:49;10.07;;;2.15;;
59930;SDS011;45790;51.538;6.736;2023-08-07T03:28:15;8.82;;;1.65;;
59930;SDS011;45790;51.538;6.736;2023-08-07T03:30:40;7.15;;;1.60;;
59930;SDS011;45790;51.538;6.736;2023-08-07T03:33:05;9.40;;;1.88;;
59930;SDS011;45790;51.538;6.736;2023-08-07T03:35:32;9.63;;;2.00;;
59930;SDS011;45790;51.538;6.736;2023-08-07T03:37:57;5.88;;;1.65;;
59930;SDS011;45790;51.538;6.736;2023-08-07T03:40:22;10.57;;;2.00;;
59930;SDS011;45790;51.538;6.736;2023-08-07T03:42:47;13.70;;;2.07;;
59930;SDS011;45790;51.538;6.736;2023-08-07T03:45:13;4.27;;;1.40;;
59930;SDS011;45790;51.538;6.736;2023-08-07T03:47:38;10.02;;;1.73;;
59930;SDS011;45790;51.538;6.736;2023-08-07T03:50:03;7.70;;;1.65;;
59930;SDS011;45790;51.538;6.736;2023-08-07T03:52:29;9.93;;;2.15;;
59930;SDS011;45790;51.538;6.736;2023-08-07T03:54:54;11.32;;;2.25;;
59930;SDS011;45790;51.538;6.736;2023-08-07T03:57:19;10.48;;;1.95;;
59930;SDS011;45790;51.538;6.736;2023-08-07T03:59:44;9.53;;;2.00;;
59930;SDS011;45790;51.538;6.736;2023-08-07T04:02:10;5.45;;;1.70;;
59930;SDS011;45790;51.538;6.736;2023-08-07T04:04:35;11.85;;;2.30;;
59930;SDS011;45790;51.538;6.736;2023-08-07T04:07:00;6.17;;;1.80;;
59930;SDS011;45790;51.538;6.736;2023-08-07T04:09:25;6.67;;;1.97;;
59930;SDS011;45790;51.538;6.736;2023-08-07T04:11:51;8.32;;;1.90;;
59930;SDS011;45790;51.538;6.736;2023-08-07T04:14:16;8.07;;;1.60;;
59930;SDS011;45790;51.538;6.736;2023-08-07T04:16:41;8.48;;;2.13;;
59930;SDS011;45790;51.538;6.736;2023-08-07T04:19:06;10.43;;;2.03;;
59930;SDS011;45790;51.538;6.736;2023-08-07T04:21:32;8.45;;;2.08;;
59930;SDS011;45790;51.538;6.736;2023-08-07T04:23:58;7.45;;;1.42;;
59930;SDS011;45790;51.538;6.736;2023-08-07T04:26:25;10.45;;;2.30;;
59930;SDS011;45790;51.538;6.736;2023-08-07T04:28:50;6.82;;;1.90;;
59930;SDS011;45790;51.538;6.736;2023-08-07T04:31:15;10.80;;;2.30;;
59930;SDS011;45790;51.538;6.736;2023-08-07T04:33:40;8.17;;;1.77;;
59930;SDS011;45790;51.538;6.736;2023-08-07T04:36:05;7.07;;;2.30;;
59930;SDS011;45790;51.538;6.736;2023-08-07T04:38:31;11.05;;;2.30;;
59930;SDS011;45790;51.538;6.736;2023-08-07T04:40:57;10.75;;;1.88;;
59930;SDS011;45790;51.538;6.736;2023-08-07T04:43:22;7.80;;;2.08;;
59930;SDS011;45790;51.538;6.736;2023-08-07T04:45:47;11.43;;;2.10;;
59930;SDS011;45790;51.538;6.736;2023-08-07T04:48:13;6.45;;;2.00;;
59930;SDS011;45790;51.538;6.736;2023-08-07T04:50:38;10.15;;;2.20;;
59930;SDS011;45790;51.538;6.736;2023-08-07T04:53:04;7.30;;;2.08;;
59930;SDS011;45790;51.538;6.736;2023-08-07T04:55:30;9.90;;;2.35;;
59930;SDS011;45790;51.538;6.736;2023-08-07T04:57:55;11.32;;;2.38;;
59930;SDS011;45790;51.538;6.736;2023-08-07T05:00:21;10.68;;;2.60;;
59930;SDS011;45790;51.538;6.736;2023-08-07T05:02:46;9.32;;;2.40;;
59930;SDS011;45790;51.538;6.736;2023-08-07T05:05:13;10.02;;;2.33;;
59930;SDS011;45790;51.538;6.736;2023-08-07T05:07:39;13.07;;;2.45;;
59930;SDS011;45790;51.538;6.736;2023-08-07T05:10:05;9.23;;;2.35;;
59930;SDS011;45790;51.538;6.736;2023-08-07T05:12:30;7.22;;;1.90;;
59930;SDS011;45790;51.538;6.736;2023-08-07T05:14:55;10.40;;;2.30;;
59930;SDS011;45790;51.538;6.736;2023-08-07T05:17:20;9.80;;;2.35;;
59930;SDS011;45790;51.538;6.736;2023-08-07T05:19:45;11.52;;;2.50;;
59930;SDS011;45790;51.538;6.736;2023-08-07T05:22:11;8.52;;;2.00;;
59930;SDS011;45790;51.538;6.736;2023-08-07T05:24:36;10.87;;;2.40;;
59930;SDS011;45790;51.538;6.736;2023-08-07T05:27:12;8.93;;;2.28;;
59930;SDS011;45790;51.538;6.736;2023-08-07T05:29:38;9.85;;;2.30;;
59930;SDS011;45790;51.538;6.736;2023-08-07T05:34:33;9.65;;;2.20;;
59930;SDS011;45790;51.538;6.736;2023-08-07T05:36:59;7.82;;;2.13;;
59930;SDS011;45790;51.538;6.736;2023-08-07T05:39:24;7.47;;;2.00;;
59930;SDS011;45790;51.538;6.736;2023-08-07T05:41:49;8.35;;;2.03;;
59930;SDS011;45790;51.538;6.736;2023-08-07T05:44:16;9.60;;;2.35;;
59930;SDS011;45790;51.538;6.736;2023-08-07T05:46:41;9.77;;;2.15;;
59930;SDS011;45790;51.538;6.736;2023-08-07T05:49:06;6.07;;;1.73;;
59930;SDS011;45790;51.538;6.736;2023-08-07T05:51:31;5.93;;;1.70;;
59930;SDS011;45790;51.538;6.736;2023-08-07T05:53:56;5.87;;;2.13;;
59930;SDS011;45790;51.538;6.736;2023-08-07T05:56:22;8.23;;;1.95;;
59930;SDS011;45790;51.538;6.736;2023-08-07T05:58:47;5.47;;;1.67;;
59930;SDS011;45790;51.538;6.736;2023-08-07T06:01:12;6.70;;;1.88;;
59930;SDS011;45790;51.538;6.736;2023-08-07T06:03:39;8.57;;;2.45;;
59930;SDS011;45790;51.538;6.736;2023-08-07T06:06:04;5.50;;;1.90;;
59930;SDS011;45790;51.538;6.736;2023-08-07T06:08:30;6.80;;;2.22;;
59930;SDS011;45790;51.538;6.736;2023-08-07T06:10:55;9.98;;;2.20;;
59930;SDS011;45790;51.538;6.736;2023-08-07T06:13:20;6.88;;;1.80;;
59930;SDS011;45790;51.538;6.736;2023-08-07T06:15:46;7.93;;;1.98;;
59930;SDS011;45790;51.538;6.736;2023-08-07T06:18:11;6.55;;;1.83;;
59930;SDS011;45790;51.538;6.736;2023-08-07T06:20:36;7.93;;;1.70;;
59930;SDS011;45790;51.538;6.736;2023-08-07T06:23:02;5.65;;;1.95;;
59930;SDS011;45790;51.538;6.736;2023-08-07T06:25:27;4.55;;;1.52;;
59930;SDS011;45790;51.538;6.736;2023-08-07T06:27:52;4.68;;;1.70;;
59930;SDS011;45790;51.538;6.736;2023-08-07T06:30:17;6.97;;;2.00;;
59930;SDS011;45790;51.538;6.736;2023-08-07T06:32:43;5.82;;;1.70;;
59930;SDS011;45790;51.538;6.736;2023-08-07T06:35:08;6.70;;;2.42;;
59930;SDS011;45790;51.538;6.736;2023-08-07T06:37:33;6.00;;;2.03;;
59930;SDS011;45790;51.538;6.736;2023-08-07T06:39:58;4.50;;;1.67;;
59930;SDS011;45790;51.538;6.736;2023-08-07T06:42:24;4.90;;;1.70;;
59930;SDS011;45790;51.538;6.736;2023-08-07T06:44:49;8.20;;;2.30;;
59930;SDS011;45790;51.538;6.736;2023-08-07T06:47:14;5.97;;;2.07;;
59930;SDS011;45790;51.538;6.736;2023-08-07T06:49:39;6.97;;;1.60;;
59930;SDS011;45790;51.538;6.736;2023-08-07T06:52:05;6.33;;;2.03;;
59930;SDS011;45790;51.538;6.736;2023-08-07T06:54:30;5.95;;;2.00;;
59930;SDS011;45790;51.538;6.736;2023-08-07T06:56:55;7.85;;;2.10;;
59930;SDS011;45790;51.538;6.736;2023-08-07T06:59:20;7.10;;;2.17;;
59930;SDS011;45790;51.538;6.736;2023-08-07T07:01:46;10.73;;;2.40;;
59930;SDS011;45790;51.538;6.736;2023-08-07T07:04:11;6.40;;;2.28;;
59930;SDS011;45790;51.538;6.736;2023-08-07T07:06:37;8.30;;;2.13;;
59930;SDS011;45790;51.538;6.736;2023-08-07T07:09:02;9.65;;;2.20;;
59930;SDS011;45790;51.538;6.736;2023-08-07T07:11:27;7.05;;;2.50;;
59930;SDS011;45790;51.538;6.736;2023-08-07T07:13:52;8.50;;;2.10;;
59930;SDS011;45790;51.538;6.736;2023-08-07T07:16:18;4.93;;;1.85;;
59930;SDS011;45790;51.538;6.736;2023-08-07T07:18:43;6.38;;;1.85;;
59930;SDS011;45790;51.538;6.736;2023-08-07T07:21:08;10.00;;;2.10;;
59930;SDS011;45790;51.538;6.736;2023-08-07T07:23:33;4.65;;;1.60;;
59930;SDS011;45790;51.538;6.736;2023-08-07T07:25:58;6.73;;;1.50;;
59930;SDS011;45790;51.538;6.736;2023-08-07T07:28:24;6.53;;;1.77;;
59930;SDS011;45790;51.538;6.736;2023-08-07T07:30:49;8.73;;;2.17;;
59930;SDS011;45790;51.538;6.736;2023-08-07T07:33:14;6.45;;;1.67;;
59930;SDS011;45790;51.538;6.736;2023-08-07T07:35:40;5.80;;;2.00;;
59930;SDS011;45790;51.538;6.736;2023-08-07T07:38:05;4.97;;;1.43;;
59930;SDS011;45790;51.538;6.736;2023-08-07T07:40:31;7.03;;;2.00;;
59930;SDS011;45790;51.538;6.736;2023-08-07T07:42:56;6.20;;;1.73;;
59930;SDS011;45790;51.538;6.736;2023-08-07T07:45:21;11.53;;;2.30;;
59930;SDS011;45790;51.538;6.736;2023-08-07T07:47:46;8.75;;;1.90;;
59930;SDS011;45790;51.538;6.736;2023-08-07T07:50:11;6.97;;;1.77;;
59930;SDS011;45790;51.538;6.736;2023-08-07T07:52:37;7.03;;;2.10;;
59930;SDS011;45790;51.538;6.736;2023-08-07T07:55:03;8.52;;;1.90;;
59930;SDS011;45790;51.538;6.736;2023-08-07T07:57:28;8.07;;;1.95;;
59930;SDS011;45790;51.538;6.736;2023-08-07T07:59:53;7.18;;;1.90;;
59930;SDS011;45790;51.538;6.736;2023-08-07T08:02:19;8.27;;;2.55;;
59930;SDS011;45790;51.538;6.736;2023-08-07T08:04:44;5.83;;;1.90;;
59930;SDS011;45790;51.538;6.736;2023-08-07T08:07:09;6.87;;;1.93;;
59930;SDS011;45790;51.538;6.736;2023-08-07T08:09:34;8.27;;;2.10;;
59930;SDS011;45790;51.538;6.736;2023-08-07T08:11:59;6.25;;;1.95;;
59930;SDS011;45790;51.538;6.736;2023-08-07T08:14:25;7.17;;;2.17;;
59930;SDS011;45790;51.538;6.736;2023-08-07T08:16:50;10.07;;;2.40;;
59930;SDS011;45790;51.538;6.736;2023-08-07T08:19:15;6.35;;;1.80;;
59930;SDS011;45790;51.538;6.736;2023-08-07T08:21:41;8.23;;;2.00;;
59930;SDS011;45790;51.538;6.736;2023-08-07T08:24:06;9.15;;;2.40;;
59930;SDS011;45790;51.538;6.736;2023-08-07T08:26:32;7.73;;;2.10;;
59930;SDS011;45790;51.538;6.736;2023-08-07T08:28:57;5.03;;;1.77;;
59930;SDS011;45790;51.538;6.736;2023-08-07T08:31:22;9.27;;;2.20;;
59930;SDS011;45790;51.538;6.736;2023-08-07T08:33:49;8.35;;;2.42;;
59930;SDS011;45790;51.538;6.736;2023-08-07T08:36:14;7.70;;;2.20;;
59930;SDS011;45790;51.538;6.736;2023-08-07T08:38:39;7.32;;;1.95;;
59930;SDS011;45790;51.538;6.736;2023-08-07T08:41:04;10.02;;;2.60;;
59930;SDS011;45790;51.538;6.736;2023-08-07T08:43:34;10.50;;;2.10;;
59930;SDS011;45790;51.538;6.736;2023-08-07T08:45:59;11.05;;;2.60;;
59930;SDS011;45790;51.538;6.736;2023-08-07T08:48:25;7.47;;;2.28;;
59930;SDS011;45790;51.538;6.736;2023-08-07T08:50:51;10.85;;;2.30;;
59930;SDS011;45790;51.538;6.736;2023-08-07T08:53:17;7.05;;;2.25;;
59930;SDS011;45790;51.538;6.736;2023-08-07T08:55:42;8.63;;;2.47;;
59930;SDS011;45790;51.538;6.736;2023-08-07T08:58:11;8.43;;;2.47;;
59930;SDS011;45790;51.538;6.736;2023-08-07T09:00:36;10.95;;;2.45;;
59930;SDS011;45790;51.538;6.736;2023-08-07T09:03:02;8.68;;;2.00;;
59930;SDS011;45790;51.538;6.736;2023-08-07T09:05:27;10.50;;;2.45;;
59930;SDS011;45790;51.538;6.736;2023-08-07T09:07:52;11.88;;;2.35;;
59930;SDS011;45790;51.538;6.736;2023-08-07T09:10:18;7.25;;;2.20;;
59930;SDS011;45790;51.538;6.736;2023-08-07T09:12:48;7.32;;;1.95;;
59930;SDS011;45790;51.538;6.736;2023-08-07T09:15:16;6.47;;;1.90;;
59930;SDS011;45790;51.538;6.736;2023-08-07T09:17:41;7.32;;;1.92;;
59930;SDS011;45790;51.538;6.736;2023-08-07T09:20:07;7.00;;;2.40;;
59930;SDS011;45790;51.538;6.736;2023-08-07T09:22:36;8.13;;;2.50;;
59930;SDS011;45790;51.538;6.736;2023-08-07T09:25:02;10.45;;;2.45;;
59930;SDS011;45790;51.538;6.736;2023-08-07T09:27:28;8.85;;;2.10;;
59930;SDS011;45790;51.538;6.736;2023-08-07T09:29:54;9.15;;;2.00;;
59930;SDS011;45790;51.538;6.736;2023-08-07T09:32:19;4.30;;;1.92;;
59930;SDS011;45790;51.538;6.736;2023-08-07T09:34:47;7.68;;;2.22;;
59930;SDS011;45790;51.538;6.736;2023-08-07T09:37:13;6.28;;;1.75;;
59930;SDS011;45790;51.538;6.736;2023-08-07T09:39:40;6.60;;;1.87;;
59930;SDS011;45790;51.538;6.736;2023-08-07T09:42:08;6.05;;;2.55;;
59930;SDS011;45790;51.538;6.736;2023-08-07T09:44:37;8.55;;;2.53;;
59930;SDS011;45790;51.538;6.736;2023-08-07T09:49:37;8.13;;;2.45;;
59930;SDS011;45790;51.538;6.736;2023-08-07T09:52:04;8.55;;;2.58;;
59930;SDS011;45790;51.538;6.736;2023-08-07T09:54:30;10.43;;;2.65;;
59930;SDS011;45790;51.538;6.736;2023-08-07T09:56:56;10.50;;;2.90;;
59930;SDS011;45790;51.538;6.736;2023-08-07T09:59:21;9.07;;;2.85;;
59930;SDS011;45790;51.538;6.736;2023-08-07T10:01:46;9.63;;;2.60;;
59930;SDS011;45790;51.538;6.736;2023-08-07T10:04:11;10.20;;;2.40;;
59930;SDS011;45790;51.538;6.736;2023-08-07T10:06:40;10.73;;;2.60;;
59930;SDS011;45790;51.538;6.736;2023-08-07T10:09:06;8.32;;;2.22;;
59930;SDS011;45790;51.538;6.736;2023-08-07T10:11:32;7.95;;;2.60;;
59930;SDS011;45790;51.538;6.736;2023-08-07T10:13:57;9.03;;;2.20;;
59930;SDS011;45790;51.538;6.736;2023-08-07T10:16:23;9.52;;;2.65;;
59930;SDS011;45790;51.538;6.736;2023-08-07T10:18:49;10.23;;;2.63;;
59930;SDS011;45790;51.538;6.736;2023-08-07T10:21:14;8.73;;;2.43;;
59930;SDS011;45790;51.538;6.736;2023-08-07T10:23:39;10.13;;;3.03;;
59930;SDS011;45790;51.538;6.736;2023-08-07T10:26:06;7.32;;;2.33;;
59930;SDS011;45790;51.538;6.736;2023-08-07T10:28:33;8.57;;;2.60;;
59930;SDS011;45790;51.538;6.736;2023-08-07T10:31:02;11.38;;;2.58;;
59930;SDS011;45790;51.538;6.736;2023-08-07T10:33:28;8.85;;;2.80;;
59930;SDS011;45790;51.538;6.736;2023-08-07T10:35:53;12.18;;;2.70;;
59930;SDS011;45790;51.538;6.736;2023-08-07T10:38:19;10.35;;;2.15;;
59930;SDS011;45790;51.538;6.736;2023-08-07T10:43:28;12.77;;;2.63;;
59930;SDS011;45790;51.538;6.736;2023-08-07T10:45:54;8.20;;;2.10;;
59930;SDS011;45790;51.538;6.736;2023-08-07T10:48:25;8.00;;;2.30;;
59930;SDS011;45790;51.538;6.736;2023-08-07T10:53:19;8.98;;;1.92;;
59930;SDS011;45790;51.538;6.736;2023-08-07T10:55:46;9.75;;;2.30;;
59930;SDS011;45790;51.538;6.736;2023-08-07T11:01:22;6.22;;;1.90;;
59930;SDS011;45790;51.538;6.736;2023-08-07T11:03:51;8.98;;;2.40;;
59930;SDS011;45790;51.538;6.736;2023-08-07T11:06:17;7.38;;;1.90;;
59930;SDS011;45790;51.538;6.736;2023-08-07T11:08:43;7.70;;;2.30;;
59930;SDS011;45790;51.538;6.736;2023-08-07T11:11:08;6.38;;;1.92;;
59930;SDS011;45790;51.538;6.736;2023-08-07T11:13:34;9.02;;;2.20;;
59930;SDS011;45790;51.538;6.736;2023-08-07T11:16:00;6.90;;;1.70;;
59930;SDS011;45790;51.538;6.736;2023-08-07T11:18:25;6.38;;;1.90;;
59930;SDS011;45790;51.538;6.736;2023-08-07T11:20:51;9.02;;;2.25;;
59930;SDS011;45790;51.538;6.736;2023-08-07T11:23:16;13.00;;;2.17;;
59930;SDS011;45790;51.538;6.736;2023-08-07T11:25:47;9.18;;;2.15;;
59930;SDS011;45790;51.538;6.736;2023-08-07T11:28:12;11.57;;;2.03;;
59930;SDS011;45790;51.538;6.736;2023-08-07T11:30:37;8.23;;;2.17;;
59930;SDS011;45790;51.538;6.736;2023-08-07T11:33:02;7.40;;;2.20;;
59930;SDS011;45790;51.538;6.736;2023-08-07T11:35:28;9.35;;;2.13;;
59930;SDS011;45790;51.538;6.736;2023-08-07T11:37:53;6.88;;;1.70;;
59930;SDS011;45790;51.538;6.736;2023-08-07T11:40:19;10.98;;;2.17;;
59930;SDS011;45790;51.538;6.736;2023-08-07T11:42:44;8.45;;;1.98;;
59930;SDS011;45790;51.538;6.736;2023-08-07T11:45:10;7.07;;;1.97;;
59930;SDS011;45790;51.538;6.736;2023-08-07T11:47:35;12.77;;;2.35;;
59930;SDS011;45790;51.538;6.736;2023-08-07T11:50:01;7.60;;;1.73;;
59930;SDS011;45790;51.538;6.736;2023-08-07T11:52:26;9.93;;;2.10;;
59930;SDS011;45790;51.538;6.736;2023-08-07T11:54:54;6.68;;;1.88;;
59930;SDS011;45790;51.538;6.736;2023-08-07T11:57:19;7.22;;;1.70;;
59930;SDS011;45790;51.538;6.736;2023-08-07T11:59:47;9.13;;;1.90;;
59930;SDS011;45790;51.538;6.736;2023-08-07T12:02:12;6.97;;;1.85;;
59930;SDS011;45790;51.538;6.736;2023-08-07T12:04:37;8.43;;;1.98;;
59930;SDS011;45790;51.538;6.736;2023-08-07T12:07:03;8.23;;;1.92;;
59930;SDS011;45790;51.538;6.736;2023-08-07T12:09:28;5.97;;;1.60;;
59930;SDS011;45790;51.538;6.736;2023-08-07T12:11:55;6.00;;;1.80;;
59930;SDS011;45790;51.538;6.736;2023-08-07T12:14:21;8.23;;;2.13;;
59930;SDS011;45790;51.538;6.736;2023-08-07T12:16:46;5.85;;;1.90;;
59930;SDS011;45790;51.538;6.736;2023-08-07T12:19:12;8.75;;;1.85;;
59930;SDS011;45790;51.538;6.736;2023-08-07T12:21:39;9.10;;;2.30;;
59930;SDS011;45790;51.538;6.736;2023-08-07T12:24:04;8.98;;;1.90;;
59930;SDS011;45790;51.538;6.736;2023-08-07T12:26:31;9.30;;;1.85;;
59930;SDS011;45790;51.538;6.736;2023-08-07T12:28:56;5.88;;;1.75;;
59930;SDS011;45790;51.538;6.736;2023-08-07T12:31:22;7.27;;;1.80;;
59930;SDS011;45790;51.538;6.736;2023-08-07T12:33:47;8.07;;;2.10;;
59930;SDS011;45790;51.538;6.736;2023-08-07T12:36:12;10.80;;;2.23;;
59930;SDS011;45790;51.538;6.736;2023-08-07T12:38:39;9.32;;;2.17;;
59930;SDS011;45790;51.538;6.736;2023-08-07T12:41:04;8.85;;;1.88;;
59930;SDS011;45790;51.538;6.736;2023-08-07T12:43:30;7.15;;;1.85;;
59930;SDS011;45790;51.538;6.736;2023-08-07T12:45:55;7.87;;;2.07;;
59930;SDS011;45790;51.538;6.736;2023-08-07T12:48:20;9.40;;;1.92;;
59930;SDS011;45790;51.538;6.736;2023-08-07T12:50:45;7.07;;;1.90;;
59930;SDS011;45790;51.538;6.736;2023-08-07T12:53:11;7.03;;;1.90;;
59930;SDS011;45790;51.538;6.736;2023-08-07T12:55:36;9.23;;;1.83;;
59930;SDS011;45790;51.538;6.736;2023-08-07T12:58:01;5.55;;;1.67;;
59930;SDS011;45790;51.538;6.736;2023-08-07T13:00:26;8.45;;;1.92;;
59930;SDS011;45790;51.538;6.736;2023-08-07T13:02:52;6.53;;;1.50;;
59930;SDS011;45790;51.538;6.736;2023-08-07T13:05:17;6.93;;;1.70;;
59930;SDS011;45790;51.538;6.736;2023-08-07T13:07:44;6.00;;;1.80;;
59930;SDS011;45790;51.538;6.736;2023-08-07T13:10:11;6.57;;;1.90;;
59930;SDS011;45790;51.538;6.736;2023-08-07T13:12:37;7.63;;;1.45;;
59930;SDS011;45790;51.538;6.736;2023-08-07T13:15:03;9.10;;;1.75;;
59930;SDS011;45790;51.538;6.736;2023-08-07T13:17:30;4.85;;;1.40;;
59930;SDS011;45790;51.538;6.736;2023-08-07T13:19:55;8.52;;;1.60;;
59930;SDS011;45790;51.538;6.736;2023-08-07T13:22:20;7.10;;;1.53;;
59930;SDS011;45790;51.538;6.736;2023-08-07T13:24:45;5.40;;;1.70;;
59930;SDS011;45790;51.538;6.736;2023-08-07T13:27:10;5.77;;;1.53;;
59930;SDS011;45790;51.538;6.736;2023-08-07T13:29:36;4.22;;;1.30;;
59930;SDS011;45790;51.538;6.736;2023-08-07T13:32:02;7.77;;;1.40;;
59930;SDS011;45790;51.538;6.736;2023-08-07T13:34:29;5.25;;;1.35;;
59930;SDS011;45790;51.538;6.736;2023-08-07T13:36:54;6.78;;;1.73;;
59930;SDS011;45790;51.538;6.736;2023-08-07T13:39:19;5.75;;;1.60;;
59930;SDS011;45790;51.538;6.736;2023-08-07T13:41:45;7.33;;;1.70;;
59930;SDS011;45790;51.538;6.736;2023-08-07T13:44:10;6.70;;;1.90;;
59930;SDS011;45790;51.538;6.736;2023-08-07T13:46:36;9.88;;;1.90;;
59930;SDS011;45790;51.538;6.736;2023-08-07T13:49:02;5.00;;;1.58;;
59930;SDS011;45790;51.538;6.736;2023-08-07T13:51:27;7.03;;;1.87;;
59930;SDS011;45790;51.538;6.736;2023-08-07T13:53:52;6.35;;;1.60;;
59930;SDS011;45790;51.538;6.736;2023-08-07T13:56:18;7.32;;;1.70;;
59930;SDS011;45790;51.538;6.736;2023-08-07T13:58:43;8.63;;;1.93;;
59930;SDS011;45790;51.538;6.736;2023-08-07T14:01:08;5.30;;;1.75;;
59930;SDS011;45790;51.538;6.736;2023-08-07T14:03:34;8.07;;;1.67;;
59930;SDS011;45790;51.538;6.736;2023-08-07T14:05:59;6.53;;;1.33;;
59930;SDS011;45790;51.538;6.736;2023-08-07T14:08:24;9.60;;;1.90;;
59930;SDS011;45790;51.538;6.736;2023-08-07T14:10:49;7.70;;;1.70;;
59930;SDS011;45790;51.538;6.736;2023-08-07T14:13:15;8.10;;;1.60;;
59930;SDS011;45790;51.538;6.736;2023-08-07T14:15:40;3.38;;;1.38;;
59930;SDS011;45790;51.538;6.736;2023-08-07T14:18:06;4.93;;;1.50;;
59930;SDS011;45790;51.538;6.736;2023-08-07T14:20:31;5.80;;;1.90;;
59930;SDS011;45790;51.538;6.736;2023-08-07T14:22:57;5.05;;;1.40;;
59930;SDS011;45790;51.538;6.736;2023-08-07T14:25:22;4.00;;;1.40;;
59930;SDS011;45790;51.538;6.736;2023-08-07T14:27:47;5.70;;;1.58;;
59930;SDS011;45790;51.538;6.736;2023-08-07T14:30:13;6.13;;;1.40;;
59930;SDS011;45790;51.538;6.736;2023-08-07T14:32:38;20.38;;;1.85;;
59930;SDS011;45790;51.538;6.736;2023-08-07T14:35:03;5.47;;;1.38;;
59930;SDS011;45790;51.538;6.736;2023-08-07T14:37:29;7.13;;;1.55;;
59930;SDS011;45790;51.538;6.736;2023-08-07T14:39:54;7.17;;;1.70;;
59930;SDS011;45790;51.538;6.736;2023-08-07T14:42:19;6.93;;;1.90;;
59930;SDS011;45790;51.538;6.736;2023-08-07T14:44:44;6.10;;;1.70;;
59930;SDS011;45790;51.538;6.736;2023-08-07T14:47:09;6.80;;;1.70;;
59930;SDS011;45790;51.538;6.736;2023-08-07T14:49:35;4.73;;;1.30;;
59930;SDS011;45790;51.538;6.736;2023-08-07T14:52:00;4.88;;;1.40;;